Time;durP1;ratioP1;P1;durP2;ratioP2;P2;SDS_P1;SDS_P2;PMS_P1;PMS_P2;Temp;Humidity;BMP_temperature;BMP_pressure;BME280_temperature;BME280_humidity;BME280_pressure;Samples;Min_cycle;Max_cycle;Signal;HPM_P1;HPM_P2
2021/07/18 00:00:07;;;;;;;;;;;17.60;99.90;;;;;;5078654;28;20334;-92
2021/07/18 00:02:33;;;;;;;;;;;17.60;99.90;;;;;;5116553;28;20396;-92
2021/07/18 00:04:59;;;;;;;;;;;17.60;99.90;;;;;;5114176;27;19924;-92
2021/07/18 00:07:25;;;;;;;;;;;17.60;99.90;;;;;;5110426;28;20298;-92
2021/07/18 00:09:52;;;;;;;;;;;17.50;99.90;;;;;;5087216;28;19920;-91
2021/07/18 00:12:19;;;;;;;;;;;17.50;99.90;;;;;;5130998;27;20047;-92
2021/07/18 00:14:45;;;;;;;;;;;17.50;99.90;;;;;;5097193;27;20327;-93
2021/07/18 00:17:11;;;;;;;;;;;17.50;99.90;;;;;;5113857;28;20006;-92
2021/07/18 00:19:37;;;;;;;;;;;17.50;99.90;;;;;;5130987;27;20811;-92
2021/07/18 00:22:03;;;;;;;;;;;17.50;99.90;;;;;;5147963;27;19923;-91
2021/07/18 00:24:28;;;;;;;;;;;17.40;99.90;;;;;;5114136;28;19919;-91
2021/07/18 00:26:54;;;;;;;;;;;17.40;99.90;;;;;;5095709;27;19950;-92
2021/07/18 00:29:20;;;;;;;;;;;17.30;99.90;;;;;;5080124;28;19927;-92
2021/07/18 00:31:45;;;;;;;;;;;17.30;99.90;;;;;;5128110;27;19923;-92
2021/07/18 00:34:11;;;;;;;;;;;17.40;99.90;;;;;;5107766;28;20388;-92
2021/07/18 00:36:37;;;;;;;;;;;17.30;99.90;;;;;;5106238;28;19920;-93
2021/07/18 00:39:04;;;;;;;;;;;17.30;99.90;;;;;;5116066;27;19974;-92
2021/07/18 00:41:30;;;;;;;;;;;17.30;99.90;;;;;;5114457;27;19929;-92
2021/07/18 00:43:56;;;;;;;;;;;17.30;99.90;;;;;;5100788;27;19931;-92
2021/07/18 00:46:22;;;;;;;;;;;17.30;99.90;;;;;;5131325;27;19927;-92
2021/07/18 00:48:48;;;;;;;;;;;17.20;99.90;;;;;;5101268;27;20381;-92
2021/07/18 00:51:13;;;;;;;;;;;17.20;99.90;;;;;;5087224;27;20005;-92
2021/07/18 00:53:39;;;;;;;;;;;17.20;99.90;;;;;;5100955;27;19919;-92
2021/07/18 00:56:05;;;;;;;;;;;17.20;99.90;;;;;;5118671;27;19920;-93
2021/07/18 00:58:31;;;;;;;;;;;17.20;99.90;;;;;;5116166;27;19926;-92
2021/07/18 01:00:58;;;;;;;;;;;17.20;99.90;;;;;;5118411;27;19931;-92
2021/07/18 01:03:25;;;;;;;;;;;17.10;99.90;;;;;;5116980;27;19998;-92
2021/07/18 01:05:51;;;;;;;;;;;17.00;99.90;;;;;;5118825;27;19995;-92
2021/07/18 01:08:16;;;;;;;;;;;17.00;99.90;;;;;;5134371;27;19920;-92
2021/07/18 01:10:42;;;;;;;;;;;17.00;99.90;;;;;;5083960;27;19919;-93
2021/07/18 01:13:09;;;;;;;;;;;17.00;99.90;;;;;;5104160;27;19929;-92
2021/07/18 01:15:35;;;;;;;;;;;17.00;99.90;;;;;;5105681;28;19965;-92
2021/07/18 01:18:01;;;;;;;;;;;17.00;99.90;;;;;;5099708;27;19923;-92
2021/07/18 01:20:27;;;;;;;;;;;17.00;99.90;;;;;;5096481;28;20010;-92
2021/07/18 01:22:55;;;;;;;;;;;17.00;99.90;;;;;;5102715;28;20014;-92
2021/07/18 01:25:20;;;;;;;;;;;17.00;99.90;;;;;;5092805;28;20643;-92
2021/07/18 01:27:46;;;;;;;;;;;17.00;99.90;;;;;;5112841;28;19931;-92
2021/07/18 01:30:13;;;;;;;;;;;16.90;99.90;;;;;;5096088;28;19931;-93
2021/07/18 01:32:39;;;;;;;;;;;16.90;99.90;;;;;;5113144;28;19924;-92
2021/07/18 01:35:05;;;;;;;;;;;16.90;99.90;;;;;;5113244;28;20056;-92
2021/07/18 01:37:31;;;;;;;;;;;16.90;99.90;;;;;;5079249;28;19924;-92
2021/07/18 01:39:57;;;;;;;;;;;16.90;99.90;;;;;;5113189;28;19959;-93
2021/07/18 01:42:24;;;;;;;;;;;16.80;99.90;;;;;;5083377;28;20011;-92
2021/07/18 01:44:50;;;;;;;;;;;16.80;99.90;;;;;;5112353;28;19920;-92
2021/07/18 01:47:16;;;;;;;;;;;16.80;99.90;;;;;;5129566;27;19924;-92
2021/07/18 01:49:42;;;;;;;;;;;16.80;99.90;;;;;;5129070;27;20010;-91
2021/07/18 01:52:08;;;;;;;;;;;16.80;99.90;;;;;;5095777;28;19927;-92
2021/07/18 01:54:34;;;;;;;;;;;16.80;99.90;;;;;;5113070;28;20366;-92
2021/07/18 01:57:16;;;;;;;;;;;16.80;99.90;;;;;;5084053;28;19942;-92
2021/07/18 01:59:42;;;;;;;;;;;16.80;99.90;;;;;;5095535;28;19920;-93
2021/07/18 02:02:09;;;;;;;;;;;16.80;99.90;;;;;;5101663;28;19928;-92
2021/07/18 02:04:34;;;;;;;;;;;16.90;99.90;;;;;;5095602;28;19954;-92
2021/07/18 02:07:04;;;;;;;;;;;16.90;99.90;;;;;;5112972;28;20374;-93
2021/07/18 02:09:29;;;;;;;;;;;16.90;99.90;;;;;;5092675;28;19941;-93
2021/07/18 02:11:55;;;;;;;;;;;16.90;99.90;;;;;;5080118;28;20378;-93
2021/07/18 02:14:22;;;;;;;;;;;16.90;99.90;;;;;;5087412;28;20358;-93
2021/07/18 02:16:49;;;;;;;;;;;17.00;99.90;;;;;;5080783;28;20453;-92
2021/07/18 02:19:16;;;;;;;;;;;17.00;99.90;;;;;;5095283;28;20002;-91
2021/07/18 02:21:41;;;;;;;;;;;17.00;99.90;;;;;;5111628;28;20378;-93
2021/07/18 02:24:07;;;;;;;;;;;17.00;99.90;;;;;;5111854;28;20019;-93
2021/07/18 02:26:33;;;;;;;;;;;17.00;99.90;;;;;;5111486;28;19974;-93
2021/07/18 02:29:00;;;;;;;;;;;17.00;99.90;;;;;;5107399;28;19920;-93
2021/07/18 02:31:26;;;;;;;;;;;17.00;99.90;;;;;;5061468;28;19920;-93
2021/07/18 02:33:51;;;;;;;;;;;17.00;99.90;;;;;;5111470;28;19930;-93
2021/07/18 02:36:17;;;;;;;;;;;17.00;99.90;;;;;;5095623;28;19935;-93
2021/07/18 02:38:43;;;;;;;;;;;17.00;99.90;;;;;;5111620;28;19926;-93
2021/07/18 02:41:09;;;;;;;;;;;17.00;99.90;;;;;;5104996;27;19919;-93
2021/07/18 02:43:34;;;;;;;;;;;17.00;99.90;;;;;;5079455;28;19931;-93
2021/07/18 02:46:00;;;;;;;;;;;17.10;99.90;;;;;;5074800;28;20359;-93
2021/07/18 02:48:26;;;;;;;;;;;17.10;99.90;;;;;;5068334;28;20428;-93
2021/07/18 02:50:52;;;;;;;;;;;17.10;99.90;;;;;;5074524;28;19920;-93
2021/07/18 02:53:18;;;;;;;;;;;17.10;99.90;;;;;;5085450;28;20420;-93
2021/07/18 02:55:43;;;;;;;;;;;17.20;99.90;;;;;;5070104;28;19964;-93
2021/07/18 02:58:09;;;;;;;;;;;17.20;99.90;;;;;;5070437;28;19927;-92
2021/07/18 03:00:35;;;;;;;;;;;17.20;99.90;;;;;;5088656;28;19920;-92
2021/07/18 03:03:01;;;;;;;;;;;17.10;99.90;;;;;;5106575;28;19931;-93
2021/07/18 03:05:27;;;;;;;;;;;17.10;99.90;;;;;;5094888;28;20440;-93
2021/07/18 03:07:52;;;;;;;;;;;17.10;99.90;;;;;;5087321;28;19982;-93
2021/07/18 03:10:19;;;;;;;;;;;17.10;99.90;;;;;;5094609;28;19926;-92
2021/07/18 03:12:45;;;;;;;;;;;17.10;99.90;;;;;;5127872;27;19916;-93
2021/07/18 03:15:12;;;;;;;;;;;17.00;99.90;;;;;;5094411;28;19930;-92
2021/07/18 03:17:38;;;;;;;;;;;17.00;99.90;;;;;;5111035;28;19919;-93
2021/07/18 03:20:05;;;;;;;;;;;17.00;99.90;;;;;;5093755;28;19924;-93
2021/07/18 03:22:32;;;;;;;;;;;16.90;99.90;;;;;;5090339;28;19924;-93
2021/07/18 03:24:58;;;;;;;;;;;16.90;99.90;;;;;;5124913;27;19920;-93
2021/07/18 03:27:24;;;;;;;;;;;16.90;99.90;;;;;;5085364;28;19927;-93
2021/07/18 03:29:50;;;;;;;;;;;16.90;99.90;;;;;;5079366;28;19920;-93
2021/07/18 03:32:16;;;;;;;;;;;16.90;99.90;;;;;;5093713;28;19965;-93
2021/07/18 03:34:41;;;;;;;;;;;16.90;99.90;;;;;;5093653;28;19974;-93
2021/07/18 03:37:07;;;;;;;;;;;17.00;99.90;;;;;;5074030;28;20397;-93
2021/07/18 03:39:33;;;;;;;;;;;17.00;99.90;;;;;;5084738;28;20417;-93
2021/07/18 03:41:59;;;;;;;;;;;17.00;99.90;;;;;;5089773;28;20729;-93
2021/07/18 03:44:24;;;;;;;;;;;16.90;99.90;;;;;;5087639;28;19927;-93
2021/07/18 03:46:50;;;;;;;;;;;16.90;99.90;;;;;;5114528;28;20387;-93
2021/07/18 03:49:16;;;;;;;;;;;16.90;99.90;;;;;;5100944;28;20378;-93
2021/07/18 03:51:43;;;;;;;;;;;16.80;99.90;;;;;;5097672;28;19924;-91
2021/07/18 03:54:08;;;;;;;;;;;16.80;99.90;;;;;;5119669;28;19946;-93
2021/07/18 03:56:34;;;;;;;;;;;16.70;99.90;;;;;;5123021;28;19920;-91
2021/07/18 03:59:00;;;;;;;;;;;16.70;99.90;;;;;;5123561;28;19928;-93
2021/07/18 04:01:26;;;;;;;;;;;16.60;99.90;;;;;;5110528;28;19981;-93
2021/07/18 04:03:52;;;;;;;;;;;16.60;99.90;;;;;;5103210;28;20374;-93
2021/07/18 04:06:18;;;;;;;;;;;16.50;99.90;;;;;;5122709;28;19935;-93
2021/07/18 04:08:44;;;;;;;;;;;16.60;99.90;;;;;;5126730;28;20423;-93
2021/07/18 04:11:10;;;;;;;;;;;16.50;99.90;;;;;;5106953;28;19923;-92
2021/07/18 04:13:36;;;;;;;;;;;16.50;99.90;;;;;;5111811;28;19927;-93
2021/07/18 04:16:03;;;;;;;;;;;16.60;99.90;;;;;;5114780;28;19951;-93
2021/07/18 04:18:28;;;;;;;;;;;16.60;99.90;;;;;;5114230;28;19926;-93
2021/07/18 04:20:54;;;;;;;;;;;16.60;99.90;;;;;;5114242;28;19924;-93
2021/07/18 04:23:20;;;;;;;;;;;16.60;99.90;;;;;;5113956;28;20436;-93
2021/07/18 04:25:46;;;;;;;;;;;16.70;99.90;;;;;;5097534;28;19951;-93
2021/07/18 04:28:12;;;;;;;;;;;16.70;99.90;;;;;;5080475;28;19926;-93
2021/07/18 04:30:38;;;;;;;;;;;16.80;99.90;;;;;;5114125;28;19951;-93
2021/07/18 04:33:04;;;;;;;;;;;16.80;99.90;;;;;;5114278;28;20382;-93
2021/07/18 04:35:30;;;;;;;;;;;16.80;99.90;;;;;;5099595;28;20386;-93
2021/07/18 04:37:56;;;;;;;;;;;16.80;99.90;;;;;;5131360;27;19931;-93
2021/07/18 04:40:22;;;;;;;;;;;16.80;99.90;;;;;;5113708;28;19931;-94
2021/07/18 04:42:47;;;;;;;;;;;16.80;99.90;;;;;;5104021;28;19931;-93
2021/07/18 04:45:13;;;;;;;;;;;16.80;99.90;;;;;;5092299;28;20008;-93
2021/07/18 04:47:43;;;;;;;;;;;16.80;99.90;;;;;;5114051;28;19916;-93
2021/07/18 04:50:09;;;;;;;;;;;16.80;99.90;;;;;;5113799;28;20378;-93
2021/07/18 04:52:35;;;;;;;;;;;16.80;99.90;;;;;;5104248;28;19916;-93
2021/07/18 04:55:01;;;;;;;;;;;16.80;99.90;;;;;;5096939;28;19923;-93
2021/07/18 04:57:26;;;;;;;;;;;16.80;99.90;;;;;;5066086;28;19924;-93
2021/07/18 04:59:52;;;;;;;;;;;16.80;99.90;;;;;;5113723;28;19927;-93
2021/07/18 05:02:18;;;;;;;;;;;16.90;99.90;;;;;;5096278;28;19924;-93
2021/07/18 05:04:44;;;;;;;;;;;16.90;99.90;;;;;;5096601;28;19959;-93
2021/07/18 05:07:10;;;;;;;;;;;16.90;99.90;;;;;;5107446;27;20345;-93
2021/07/18 05:09:36;;;;;;;;;;;17.00;99.90;;;;;;5113716;27;19926;-93
2021/07/18 05:12:01;;;;;;;;;;;17.00;99.90;;;;;;5099719;28;19930;-93
2021/07/18 05:14:27;;;;;;;;;;;17.00;99.90;;;;;;5090030;28;19942;-92
2021/07/18 05:16:53;;;;;;;;;;;17.10;99.90;;;;;;5110602;28;19942;-93
2021/07/18 05:19:18;;;;;;;;;;;17.10;99.90;;;;;;5081884;28;19920;-93
2021/07/18 05:21:44;;;;;;;;;;;17.20;99.90;;;;;;5093804;28;20290;-92
2021/07/18 05:24:10;;;;;;;;;;;17.20;99.90;;;;;;5129635;27;19924;-93
2021/07/18 05:26:35;;;;;;;;;;;17.30;99.90;;;;;;5082525;28;19927;-92
2021/07/18 05:29:01;;;;;;;;;;;17.30;99.90;;;;;;5085683;28;20334;-93
2021/07/18 05:31:27;;;;;;;;;;;17.40;99.90;;;;;;5098594;28;20371;-91
2021/07/18 05:33:52;;;;;;;;;;;17.40;99.90;;;;;;5113922;28;20382;-93
2021/07/18 05:36:18;;;;;;;;;;;17.40;99.90;;;;;;5114350;28;19926;-93
2021/07/18 05:38:44;;;;;;;;;;;17.40;99.90;;;;;;5092762;28;20390;-93
2021/07/18 05:41:09;;;;;;;;;;;17.50;99.90;;;;;;5086411;27;20779;-93
2021/07/18 05:43:35;;;;;;;;;;;17.50;99.90;;;;;;5099724;27;19946;-92
2021/07/18 05:46:01;;;;;;;;;;;17.60;99.90;;;;;;5114120;27;19930;-91
2021/07/18 05:48:27;;;;;;;;;;;17.60;99.90;;;;;;5095948;28;20362;-92
2021/07/18 05:50:55;;;;;;;;;;;17.60;99.90;;;;;;5095633;28;19919;-92
2021/07/18 05:53:21;;;;;;;;;;;17.70;99.90;;;;;;5078162;28;19954;-93
2021/07/18 05:55:46;;;;;;;;;;;17.70;99.90;;;;;;5110086;28;19928;-93
2021/07/18 05:58:12;;;;;;;;;;;17.80;99.90;;;;;;5114575;27;20378;-92
2021/07/18 06:00:40;;;;;;;;;;;17.80;99.90;;;;;;5084025;28;20006;-93
2021/07/18 06:03:07;;;;;;;;;;;17.90;99.90;;;;;;5114616;27;19923;-92
2021/07/18 06:05:35;;;;;;;;;;;17.90;99.90;;;;;;5112464;27;19928;-93
2021/07/18 06:08:02;;;;;;;;;;;18.00;99.90;;;;;;5098337;28;19924;-93
2021/07/18 06:10:28;;;;;;;;;;;18.00;99.90;;;;;;5107125;28;19924;-92
2021/07/18 06:12:56;;;;;;;;;;;18.10;99.90;;;;;;5129962;27;19955;-92
2021/07/18 06:15:22;;;;;;;;;;;18.10;99.90;;;;;;5107535;28;19946;-92
2021/07/18 06:17:47;;;;;;;;;;;18.20;99.90;;;;;;5105826;28;20374;-93
2021/07/18 06:20:14;;;;;;;;;;;18.20;99.90;;;;;;5098216;27;19915;-92
2021/07/18 06:22:39;;;;;;;;;;;18.30;99.90;;;;;;5111869;28;19923;-92
2021/07/18 06:25:09;;;;;;;;;;;18.30;99.90;;;;;;5115109;27;19920;-92
2021/07/18 06:27:35;;;;;;;;;;;18.40;99.90;;;;;;5098907;27;19969;-93
2021/07/18 06:30:01;;;;;;;;;;;18.40;99.90;;;;;;5098558;27;19927;-92
2021/07/18 06:32:28;;;;;;;;;;;18.50;99.90;;;;;;5098648;27;20393;-92
2021/07/18 06:34:54;;;;;;;;;;;18.50;99.90;;;;;;5131998;27;19930;-92
2021/07/18 06:37:19;;;;;;;;;;;18.60;99.90;;;;;;5125780;27;20298;-92
2021/07/18 06:39:45;;;;;;;;;;;18.60;99.90;;;;;;5073993;27;20388;-93
2021/07/18 06:42:11;;;;;;;;;;;18.60;99.90;;;;;;5073257;28;19930;-92
2021/07/18 06:44:37;;;;;;;;;;;18.70;99.90;;;;;;5151170;27;19923;-93
2021/07/18 06:47:02;;;;;;;;;;;18.70;99.90;;;;;;5090262;27;19954;-92
2021/07/18 06:49:28;;;;;;;;;;;18.80;99.90;;;;;;5089356;27;19973;-93
2021/07/18 06:51:54;;;;;;;;;;;18.80;99.90;;;;;;5106206;27;19936;-91
2021/07/18 06:54:20;;;;;;;;;;;18.90;99.90;;;;;;5082512;28;19923;-91
2021/07/18 06:56:46;;;;;;;;;;;19.00;99.90;;;;;;5098325;27;20522;-92
2021/07/18 06:59:11;;;;;;;;;;;19.00;99.90;;;;;;5123811;27;20289;-92
2021/07/18 07:01:37;;;;;;;;;;;19.10;99.90;;;;;;5111249;28;19924;-92
2021/07/18 07:04:04;;;;;;;;;;;19.10;99.90;;;;;;5109898;27;19927;-92
2021/07/18 07:06:31;;;;;;;;;;;19.10;99.90;;;;;;5100736;27;19968;-92
2021/07/18 07:08:56;;;;;;;;;;;19.20;99.90;;;;;;5123922;27;20388;-92
2021/07/18 07:11:23;;;;;;;;;;;19.20;99.90;;;;;;5130188;27;19959;-91
2021/07/18 07:13:50;;;;;;;;;;;19.30;99.90;;;;;;5115561;28;20004;-92
2021/07/18 07:16:16;;;;;;;;;;;19.30;99.90;;;;;;5103686;27;19986;-92
2021/07/18 07:18:42;;;;;;;;;;;19.40;99.90;;;;;;5097713;27;19955;-92
2021/07/18 07:21:09;;;;;;;;;;;19.40;99.90;;;;;;5125643;27;19923;-92
2021/07/18 07:23:38;;;;;;;;;;;19.40;99.90;;;;;;5105897;27;19928;-92
2021/07/18 07:26:04;;;;;;;;;;;19.50;99.90;;;;;;5114018;28;19923;-91
2021/07/18 07:28:31;;;;;;;;;;;19.50;99.90;;;;;;5119581;28;19920;-90
2021/07/18 07:30:58;;;;;;;;;;;19.60;99.90;;;;;;5120074;27;19930;-92
2021/07/18 07:33:25;;;;;;;;;;;19.60;99.90;;;;;;5117998;27;19919;-92
2021/07/18 07:35:51;;;;;;;;;;;19.70;99.90;;;;;;5111293;27;19919;-91
2021/07/18 07:38:18;;;;;;;;;;;19.70;99.90;;;;;;5125994;27;19923;-92
2021/07/18 07:40:45;;;;;;;;;;;19.70;99.90;;;;;;5124527;27;19927;-93
2021/07/18 07:43:12;;;;;;;;;;;19.80;99.90;;;;;;5120530;28;19934;-90
2021/07/18 07:45:38;;;;;;;;;;;19.80;99.90;;;;;;5112434;28;19925;-91
2021/07/18 07:48:04;;;;;;;;;;;19.90;99.90;;;;;;5112562;27;19923;-92
2021/07/18 07:50:30;;;;;;;;;;;20.00;99.90;;;;;;5115794;27;19923;-90
2021/07/18 07:52:56;;;;;;;;;;;20.00;99.90;;;;;;5097939;28;19931;-92
2021/07/18 07:55:22;;;;;;;;;;;20.10;99.90;;;;;;5098656;27;19920;-91
2021/07/18 07:57:48;;;;;;;;;;;20.10;99.90;;;;;;5136369;27;20012;-92
2021/07/18 08:00:15;;;;;;;;;;;20.10;99.90;;;;;;5081510;28;19923;-92
2021/07/18 08:02:41;;;;;;;;;;;20.20;99.90;;;;;;5118284;27;19935;-91
2021/07/18 08:05:07;;;;;;;;;;;20.20;99.90;;;;;;5102647;27;19923;-92
2021/07/18 08:07:34;;;;;;;;;;;20.20;99.90;;;;;;5118864;27;19950;-92
2021/07/18 08:10:06;;;;;;;;;;;20.30;99.90;;;;;;5102160;27;19941;-91
2021/07/18 08:12:31;;;;;;;;;;;20.40;99.90;;;;;;5114548;28;19924;-93
2021/07/18 08:14:58;;;;;;;;;;;20.40;99.90;;;;;;5115794;27;19919;-92
2021/07/18 08:17:24;;;;;;;;;;;20.50;99.90;;;;;;5101624;27;19919;-92
2021/07/18 08:19:50;;;;;;;;;;;20.50;99.90;;;;;;5080918;28;19924;-93
2021/07/18 08:22:16;;;;;;;;;;;20.60;99.90;;;;;;5105767;27;20000;-92
2021/07/18 08:24:41;;;;;;;;;;;20.60;99.90;;;;;;5113416;27;19928;-90
2021/07/18 08:27:07;;;;;;;;;;;20.70;99.90;;;;;;5096977;27;19923;-91
2021/07/18 08:29:33;;;;;;;;;;;20.70;99.90;;;;;;5098902;27;19945;-92
2021/07/18 08:31:59;;;;;;;;;;;20.80;99.90;;;;;;5116069;27;19923;-92
2021/07/18 08:34:25;;;;;;;;;;;20.80;99.90;;;;;;5081808;27;19923;-93
2021/07/18 08:36:51;;;;;;;;;;;20.90;99.90;;;;;;5097626;27;20018;-92
2021/07/18 08:39:17;;;;;;;;;;;20.90;99.90;;;;;;5098593;27;20337;-92
2021/07/18 08:41:44;;;;;;;;;;;21.10;99.90;;;;;;5132145;27;20465;-92
2021/07/18 08:44:11;;;;;;;;;;;21.10;99.90;;;;;;5110679;28;20383;-93
2021/07/18 08:46:37;;;;;;;;;;;21.10;99.90;;;;;;5113564;27;19924;-92
2021/07/18 08:49:03;;;;;;;;;;;21.20;99.90;;;;;;5080672;27;19946;-93
2021/07/18 08:51:30;;;;;;;;;;;21.20;99.90;;;;;;5096702;27;20401;-93
2021/07/18 08:53:56;;;;;;;;;;;21.30;99.90;;;;;;5112534;27;19920;-93
2021/07/18 08:56:22;;;;;;;;;;;21.40;99.90;;;;;;5113291;27;19923;-92
2021/07/18 08:58:48;;;;;;;;;;;21.40;99.90;;;;;;5079347;27;19926;-93
2021/07/18 09:01:19;;;;;;;;;;;21.50;99.90;;;;;;5113739;27;20354;-92
2021/07/18 09:03:47;;;;;;;;;;;21.50;99.90;;;;;;5096713;27;19928;-92
2021/07/18 09:06:13;;;;;;;;;;;21.60;99.90;;;;;;5096181;27;19926;-92
2021/07/18 09:08:43;;;;;;;;;;;21.60;99.90;;;;;;5111883;27;19942;-92
2021/07/18 09:11:16;;;;;;;;;;;21.60;99.90;;;;;;5096736;27;19927;-92
2021/07/18 09:13:58;;;;;;;;;;;21.70;99.90;;;;;;5113339;27;19931;-93
2021/07/18 09:16:34;;;;;;;;;;;21.80;99.90;;;;;;5113312;27;20051;-92
2021/07/18 09:19:15;;;;;;;;;;;21.80;99.90;;;;;;5081489;27;20362;-92
2021/07/18 09:21:51;;;;;;;;;;;21.90;99.90;;;;;;5112388;27;20420;-92
2021/07/18 09:24:18;;;;;;;;;;;22.00;99.90;;;;;;5111326;28;20606;-93
2021/07/18 09:26:44;;;;;;;;;;;22.00;99.90;;;;;;5114585;27;19940;-94
2021/07/18 09:29:23;;;;;;;;;;;22.10;99.90;;;;;;5098562;27;20010;-93
2021/07/18 09:32:00;;;;;;;;;;;22.10;99.90;;;;;;5149493;27;19919;-92
2021/07/18 09:34:31;;;;;;;;;;;22.20;99.90;;;;;;5150070;27;19919;-92
2021/07/18 09:37:02;;;;;;;;;;;22.20;99.90;;;;;;5111205;28;19930;-93
2021/07/18 09:39:28;;;;;;;;;;;22.20;99.90;;;;;;5097516;27;20354;-92
2021/07/18 09:41:57;;;;;;;;;;;22.30;99.90;;;;;;5080756;27;19927;-93
2021/07/18 09:44:23;;;;;;;;;;;22.30;99.90;;;;;;5097691;27;19923;-93
2021/07/18 09:46:49;;;;;;;;;;;22.40;99.90;;;;;;5080625;27;19926;-92
2021/07/18 09:49:34;;;;;;;;;;;22.40;99.90;;;;;;5097649;27;20374;-92
2021/07/18 09:52:17;;;;;;;;;;;22.40;99.90;;;;;;5113820;27;19920;-93
2021/07/18 09:54:43;;;;;;;;;;;22.50;99.90;;;;;;5135670;27;19919;-92
2021/07/18 09:57:12;;;;;;;;;;;22.50;99.90;;;;;;5113914;27;20010;-94
2021/07/18 09:59:44;;;;;;;;;;;22.50;99.90;;;;;;5076976;28;19920;-93
2021/07/18 10:02:09;;;;;;;;;;;22.50;99.90;;;;;;5094864;27;20054;-93
2021/07/18 10:04:39;;;;;;;;;;;22.50;99.90;;;;;;5094727;27;20478;-94
2021/07/18 10:07:06;;;;;;;;;;;22.50;99.90;;;;;;5116139;27;19919;-92
2021/07/18 10:09:33;;;;;;;;;;;22.50;99.90;;;;;;5121330;27;19927;-95
2021/07/18 10:11:59;;;;;;;;;;;22.60;99.90;;;;;;5131200;27;19919;-94
2021/07/18 10:14:25;;;;;;;;;;;22.60;99.90;;;;;;5113354;27;19919;-93
2021/07/18 10:16:53;;;;;;;;;;;22.70;99.90;;;;;;5112432;27;20378;-93
2021/07/18 10:19:20;;;;;;;;;;;22.60;99.90;;;;;;5094392;27;19915;-93
2021/07/18 10:21:46;;;;;;;;;;;22.60;99.90;;;;;;5094453;27;19950;-93
2021/07/18 10:24:15;;;;;;;;;;;22.60;99.90;;;;;;5076139;27;19924;-93
2021/07/18 10:26:41;;;;;;;;;;;22.60;99.90;;;;;;5075619;27;19931;-93
2021/07/18 10:29:09;;;;;;;;;;;22.60;99.90;;;;;;5095428;27;19962;-93
2021/07/18 10:31:38;;;;;;;;;;;22.60;99.90;;;;;;5113191;27;19934;-92
2021/07/18 10:34:05;;;;;;;;;;;22.60;99.90;;;;;;5107683;27;20378;-92
2021/07/18 10:36:34;;;;;;;;;;;22.70;99.90;;;;;;5110589;27;19919;-92
2021/07/18 10:39:00;;;;;;;;;;;22.70;99.90;;;;;;5110013;28;19928;-92
2021/07/18 10:41:45;;;;;;;;;;;22.70;99.90;;;;;;5079234;27;20478;-93
2021/07/18 10:44:12;;;;;;;;;;;22.70;99.90;;;;;;5124486;27;19928;-93
2021/07/18 10:46:40;;;;;;;;;;;22.70;99.90;;;;;;5128507;27;20419;-94
2021/07/18 10:49:12;;;;;;;;;;;22.70;99.90;;;;;;5094900;27;19927;-92
2021/07/18 10:51:39;;;;;;;;;;;22.70;99.90;;;;;;5145494;27;19924;-93
2021/07/18 10:54:12;;;;;;;;;;;22.70;99.90;;;;;;5128983;27;19937;-94
2021/07/18 10:56:43;;;;;;;;;;;22.70;99.90;;;;;;5128264;27;19920;-93
2021/07/18 10:59:08;;;;;;;;;;;22.70;99.90;;;;;;5095119;27;20017;-92
2021/07/18 11:01:35;;;;;;;;;;;22.80;99.90;;;;;;5095738;27;20358;-93
2021/07/18 11:04:01;;;;;;;;;;;22.80;99.90;;;;;;5096695;27;19928;-92
2021/07/18 11:06:31;;;;;;;;;;;22.80;99.90;;;;;;5130086;27;19929;-93
2021/07/18 11:09:06;;;;;;;;;;;22.80;99.90;;;;;;5130641;27;20366;-94
2021/07/18 11:11:49;;;;;;;;;;;22.80;99.90;;;;;;5092416;28;19967;-94
2021/07/18 11:14:37;;;;;;;;;;;22.90;99.90;;;;;;5109420;28;19926;-93
2021/07/18 11:17:08;;;;;;;;;;;22.90;99.90;;;;;;5121375;27;22167;-92
2021/07/18 11:19:37;;;;;;;;;;;22.90;99.90;;;;;;5148679;27;19923;-92
2021/07/18 11:22:08;;;;;;;;;;;22.80;99.90;;;;;;5092348;28;19969;-92
2021/07/18 11:24:53;;;;;;;;;;;22.80;99.90;;;;;;5099230;27;19928;-93
2021/07/18 11:27:29;;;;;;;;;;;22.80;99.90;;;;;;5092310;28;20022;-93
2021/07/18 11:29:57;;;;;;;;;;;22.80;99.90;;;;;;5092732;28;19927;-93
2021/07/18 11:32:30;;;;;;;;;;;22.80;99.90;;;;;;5098266;27;20021;-93
2021/07/18 11:34:56;;;;;;;;;;;22.80;99.90;;;;;;5112952;28;19926;-91
2021/07/18 11:37:23;;;;;;;;;;;22.80;99.90;;;;;;5092310;28;20382;-95
2021/07/18 11:39:49;;;;;;;;;;;22.80;99.90;;;;;;5096009;28;19931;-94
2021/07/18 11:42:17;;;;;;;;;;;22.90;99.90;;;;;;5095685;28;19930;-94
2021/07/18 11:44:44;;;;;;;;;;;22.90;99.90;;;;;;5094602;28;20030;-93
2021/07/18 11:47:12;;;;;;;;;;;22.90;99.90;;;;;;5111974;28;19923;-94
2021/07/18 11:49:42;;;;;;;;;;;22.90;99.90;;;;;;5094919;28;19923;-93
2021/07/18 11:52:10;;;;;;;;;;;22.90;99.90;;;;;;5094917;28;20423;-93
2021/07/18 11:54:43;;;;;;;;;;;22.90;99.90;;;;;;5073761;28;19931;-93
2021/07/18 11:57:16;;;;;;;;;;;22.90;99.90;;;;;;5094472;28;19946;-93
2021/07/18 11:59:43;;;;;;;;;;;23.00;99.90;;;;;;5093139;28;19959;-92
2021/07/18 12:02:09;;;;;;;;;;;23.00;99.90;;;;;;5094597;28;19954;-94
2021/07/18 12:04:35;;;;;;;;;;;23.00;99.90;;;;;;5095021;28;19927;-92
2021/07/18 12:07:05;;;;;;;;;;;23.00;99.90;;;;;;5094821;28;19931;-93
2021/07/18 12:09:37;;;;;;;;;;;23.00;99.90;;;;;;5095358;28;20109;-93
2021/07/18 12:12:14;;;;;;;;;;;23.00;99.90;;;;;;5094734;28;20018;-94
2021/07/18 12:14:41;;;;;;;;;;;22.90;99.90;;;;;;5094839;28;19915;-93
2021/07/18 12:17:11;;;;;;;;;;;22.90;99.90;;;;;;5129545;28;19924;-92
2021/07/18 12:19:38;;;;;;;;;;;22.90;99.90;;;;;;5092105;28;19927;-92
2021/07/18 12:22:07;;;;;;;;;;;22.90;99.90;;;;;;5067459;28;19920;-92
2021/07/18 12:24:38;;;;;;;;;;;22.90;99.90;;;;;;5091605;28;20401;-93
2021/07/18 12:27:07;;;;;;;;;;;23.00;99.90;;;;;;5080559;28;20419;-91
2021/07/18 12:29:38;;;;;;;;;;;23.00;99.90;;;;;;5109582;28;20405;-91
2021/07/18 12:32:05;;;;;;;;;;;22.90;99.90;;;;;;5108876;28;19950;-93
2021/07/18 12:34:33;;;;;;;;;;;22.90;99.90;;;;;;5093143;28;19959;-93
2021/07/18 12:37:03;;;;;;;;;;;22.90;99.90;;;;;;5094892;28;19958;-93
2021/07/18 12:39:30;;;;;;;;;;;22.80;99.90;;;;;;5110355;28;20024;-93
2021/07/18 12:41:57;;;;;;;;;;;22.80;99.90;;;;;;5102980;28;19924;-93
2021/07/18 12:44:23;;;;;;;;;;;22.80;99.90;;;;;;5095386;28;19977;-94
2021/07/18 12:47:09;;;;;;;;;;;22.90;99.90;;;;;;5125771;27;19919;-94
2021/07/18 12:49:35;;;;;;;;;;;22.80;99.90;;;;;;5091464;28;20350;-93
2021/07/18 12:52:04;;;;;;;;;;;22.80;99.90;;;;;;5093871;28;19943;-94
2021/07/18 12:54:30;;;;;;;;;;;22.70;99.90;;;;;;5108509;28;19928;-94
2021/07/18 12:56:59;;;;;;;;;;;22.70;99.90;;;;;;5093414;28;19927;-94
2021/07/18 12:59:28;;;;;;;;;;;22.80;99.90;;;;;;5094248;28;19969;-93
2021/07/18 13:02:10;;;;;;;;;;;22.80;99.90;;;;;;5094089;28;20018;-93
2021/07/18 13:04:36;;;;;;;;;;;22.80;99.90;;;;;;5090837;28;20027;-93
2021/07/18 13:07:08;;;;;;;;;;;22.80;99.90;;;;;;5091977;28;20015;-92
2021/07/18 13:09:37;;;;;;;;;;;22.70;99.90;;;;;;5123013;27;19949;-93
2021/07/18 13:12:04;;;;;;;;;;;22.70;99.90;;;;;;5090993;28;19977;-94
2021/07/18 13:14:40;;;;;;;;;;;22.80;99.90;;;;;;5093378;28;19926;-93
2021/07/18 13:17:15;;;;;;;;;;;22.80;99.90;;;;;;5090472;28;19976;-93
2021/07/18 13:19:57;;;;;;;;;;;22.80;99.90;;;;;;5084369;28;20108;-94
2021/07/18 13:22:34;;;;;;;;;;;22.80;99.90;;;;;;5116650;27;20132;-94
2021/07/18 13:25:04;;;;;;;;;;;22.80;99.90;;;;;;5120383;27;19928;-94
2021/07/18 13:27:36;;;;;;;;;;;22.70;99.90;;;;;;5097081;27;20365;-93
2021/07/18 13:30:09;;;;;;;;;;;22.60;99.90;;;;;;5097414;27;19923;-93
2021/07/18 13:32:39;;;;;;;;;;;22.50;99.90;;;;;;5097627;27;19919;-94
2021/07/18 13:35:06;;;;;;;;;;;22.40;99.90;;;;;;5146835;27;19932;-92
2021/07/18 13:37:53;;;;;;;;;;;22.40;99.90;;;;;;5078986;27;19999;-93
2021/07/18 13:40:32;;;;;;;;;;;22.40;99.90;;;;;;5092070;27;19920;-94
2021/07/18 13:43:08;;;;;;;;;;;22.40;99.90;;;;;;5099921;27;20010;-93
2021/07/18 13:45:36;;;;;;;;;;;22.40;99.90;;;;;;5094596;28;19958;-95
2021/07/18 13:48:06;;;;;;;;;;;22.40;99.90;;;;;;5097670;27;19919;-94
2021/07/18 13:50:32;;;;;;;;;;;22.40;99.90;;;;;;5116087;27;20034;-94
2021/07/18 13:53:01;;;;;;;;;;;22.40;99.90;;;;;;5114989;27;19972;-94
2021/07/18 13:55:27;;;;;;;;;;;22.50;99.90;;;;;;5123160;27;20390;-94
2021/07/18 13:57:53;;;;;;;;;;;22.50;99.90;;;;;;5098882;27;20028;-94
2021/07/18 14:00:19;;;;;;;;;;;22.50;99.90;;;;;;5111188;27;20000;-94
2021/07/18 14:02:46;;;;;;;;;;;22.60;99.90;;;;;;5093404;27;20018;-95
2021/07/18 14:05:17;;;;;;;;;;;22.60;99.90;;;;;;5077076;27;20034;-92
2021/07/18 14:07:43;;;;;;;;;;;22.70;99.90;;;;;;5094930;27;19926;-94
2021/07/18 14:10:14;;;;;;;;;;;22.80;99.90;;;;;;5095329;27;19927;-93
2021/07/18 14:12:43;;;;;;;;;;;22.90;99.90;;;;;;5093623;27;19923;-94
2021/07/18 14:15:17;;;;;;;;;;;22.80;99.90;;;;;;5129104;27;19915;-94
2021/07/18 14:17:48;;;;;;;;;;;22.80;99.90;;;;;;5129779;27;19919;-93